createdAt,value
2018-12-12T00:01:08.910Z,21.57
2018-12-12T00:03:37.471Z,18.73
2018-12-12T00:06:06.066Z,17.97
2018-12-12T00:08:35.347Z,21.17
2018-12-12T00:11:05.239Z,21.10
2018-12-12T00:13:33.991Z,22.93
2018-12-12T00:16:04.174Z,22.43
2018-12-12T00:18:36.957Z,24.03
2018-12-12T00:21:06.016Z,20.03
2018-12-12T00:23:34.641Z,20.97
2018-12-12T00:26:04.648Z,25.57
2018-12-12T00:28:33.214Z,18.87
2018-12-12T00:31:04.328Z,18.97
2018-12-12T00:33:38.251Z,22.00
2018-12-12T00:36:11.244Z,18.87
2018-12-12T00:38:39.931Z,18.43
2018-12-12T00:41:08.675Z,17.40
2018-12-12T00:43:38.660Z,18.63
2018-12-12T00:46:07.304Z,20.63
2018-12-12T00:48:35.908Z,20.43
2018-12-12T00:51:05.293Z,18.10
2018-12-12T00:53:33.971Z,23.70
2018-12-12T00:56:04.662Z,15.60
2018-12-12T00:58:33.204Z,17.70
2018-12-12T01:01:02.836Z,18.57
2018-12-12T01:03:32.112Z,18.10
2018-12-12T01:06:00.825Z,14.00
2018-12-12T01:08:29.870Z,19.60
2018-12-12T01:11:04.968Z,18.30
2018-12-12T01:13:33.824Z,21.73
2018-12-12T01:16:05.537Z,15.40
2018-12-12T01:18:34.208Z,16.63
2018-12-12T01:21:04.452Z,13.03
2018-12-12T01:23:33.086Z,15.80
2018-12-12T01:26:02.349Z,19.27
2018-12-12T01:28:30.942Z,17.33
2018-12-12T01:30:59.631Z,18.37
2018-12-12T01:33:28.219Z,17.80
2018-12-12T01:35:57.089Z,19.23
2018-12-12T01:38:25.691Z,22.13
2018-12-12T01:40:54.419Z,24.07
2018-12-12T01:43:23.274Z,20.83
2018-12-12T01:45:51.965Z,16.33
2018-12-12T01:48:20.572Z,18.53
2018-12-12T01:50:49.280Z,18.03
2018-12-12T01:53:17.840Z,20.90
2018-12-12T01:55:46.706Z,16.33
2018-12-12T01:58:15.274Z,23.83
2018-12-12T02:00:45.239Z,16.53
2018-12-12T02:03:13.855Z,15.40
2018-12-12T02:05:42.457Z,20.60
2018-12-12T02:08:11.297Z,15.70
2018-12-12T02:10:40.232Z,26.57
2018-12-12T02:13:20.336Z,15.00
2018-12-12T02:15:49.394Z,16.17
2018-12-12T02:18:18.087Z,18.93
2018-12-12T02:20:46.711Z,15.60
2018-12-12T02:23:15.840Z,12.73
2018-12-12T02:25:45.208Z,16.73
2018-12-12T02:28:13.953Z,15.10
2018-12-12T02:30:42.670Z,13.70
2018-12-12T02:33:11.293Z,14.50
2018-12-12T02:35:40.356Z,17.10
2018-12-12T02:38:09.041Z,13.33
2018-12-12T02:40:37.831Z,14.07
2018-12-12T02:43:06.826Z,18.00
2018-12-12T02:45:35.478Z,16.10
2018-12-12T02:48:05.790Z,15.73
2018-12-12T02:50:34.495Z,19.30
2018-12-12T02:53:04.667Z,13.90
2018-12-12T02:55:33.321Z,12.40
2018-12-12T02:58:03.825Z,17.33
2018-12-12T03:00:32.856Z,16.57
2018-12-12T03:03:03.166Z,12.60
2018-12-12T03:05:31.922Z,15.50
2018-12-12T03:08:00.483Z,16.43
2018-12-12T03:10:29.091Z,16.10
2018-12-12T03:12:57.874Z,17.70
2018-12-12T03:15:28.329Z,14.50
2018-12-12T03:17:57.437Z,15.53
2018-12-12T03:20:26.060Z,17.67
2018-12-12T03:22:55.604Z,12.97
2018-12-12T03:25:24.199Z,15.77
2018-12-12T03:27:52.825Z,14.10
2018-12-12T03:30:21.453Z,15.20
2018-12-12T03:32:50.022Z,14.27
2018-12-12T03:35:18.719Z,13.30
2018-12-12T03:37:47.811Z,13.40
2018-12-12T03:40:16.826Z,13.63
2018-12-12T03:42:46.294Z,12.10
2018-12-12T03:45:15.156Z,17.87
2018-12-12T03:47:43.799Z,16.37
2018-12-12T03:50:12.447Z,13.80
2018-12-12T03:52:41.262Z,13.50
2018-12-12T03:55:09.871Z,11.97
2018-12-12T03:57:38.488Z,14.30
2018-12-12T04:00:08.876Z,12.53
2018-12-12T04:02:37.519Z,17.00
2018-12-12T04:05:06.391Z,15.43
2018-12-12T04:07:35.137Z,12.90
2018-12-12T04:10:06.374Z,14.40
2018-12-12T04:12:35.122Z,15.17
2018-12-12T04:15:05.722Z,12.23
2018-12-12T04:17:34.406Z,17.17
2018-12-12T04:20:05.338Z,15.00
2018-12-12T04:22:34.615Z,13.53
2018-12-12T04:25:05.655Z,14.30
2018-12-12T04:27:34.339Z,15.20
2018-12-12T04:30:05.341Z,13.43
2018-12-12T04:32:33.984Z,14.43
2018-12-12T04:35:04.349Z,18.43
2018-12-12T04:37:32.975Z,16.00
2018-12-12T04:40:02.532Z,14.53
2018-12-12T04:42:31.454Z,14.67
2018-12-12T04:45:00.016Z,14.77
2018-12-12T04:47:28.855Z,12.83
2018-12-12T04:49:57.901Z,12.17
2018-12-12T04:52:26.512Z,11.80
2018-12-12T04:54:55.224Z,15.83
2018-12-12T04:57:24.700Z,13.23
2018-12-12T04:59:53.340Z,11.70
2018-12-12T05:02:26.302Z,13.93
2018-12-12T05:04:56.131Z,15.03
2018-12-12T05:07:24.801Z,13.60
2018-12-12T05:09:53.465Z,18.33
2018-12-12T05:12:22.088Z,17.80
2018-12-12T05:14:50.654Z,15.53
2018-12-12T05:17:19.280Z,12.37
2018-12-12T05:19:47.928Z,14.17
2018-12-12T05:22:16.565Z,13.83
2018-12-12T05:24:45.181Z,13.50
2018-12-12T05:27:13.770Z,13.67
2018-12-12T05:29:42.374Z,13.80
2018-12-12T05:32:11.471Z,13.30
2018-12-12T05:34:40.099Z,14.27
2018-12-12T05:37:08.907Z,15.60
2018-12-12T05:39:38.373Z,15.10
2018-12-12T05:42:07.029Z,15.80
2018-12-12T05:44:35.673Z,15.70
2018-12-12T05:47:05.591Z,17.57
2018-12-12T05:49:34.382Z,14.80
2018-12-12T05:52:04.928Z,19.40
2018-12-12T05:54:33.751Z,16.10
2018-12-12T05:57:04.274Z,13.47
2018-12-12T05:59:33.197Z,13.20
2018-12-12T06:02:03.223Z,18.00
2018-12-12T06:04:31.984Z,15.70
2018-12-12T06:07:00.551Z,15.23
2018-12-12T06:09:29.267Z,12.77
2018-12-12T06:11:58.148Z,14.20
2018-12-12T06:14:26.807Z,15.30
2018-12-12T06:16:55.597Z,13.13
2018-12-12T06:19:24.239Z,15.63
2018-12-12T06:21:52.946Z,15.67
2018-12-12T06:24:21.829Z,13.90
2018-12-12T06:26:51.117Z,15.37
2018-12-12T06:29:19.814Z,16.53
2018-12-12T06:31:48.512Z,14.27
2018-12-12T06:34:17.159Z,19.20
2018-12-12T06:36:45.888Z,14.33
2018-12-12T06:39:14.478Z,13.73
2018-12-12T06:41:43.100Z,17.20
2018-12-12T06:44:11.743Z,12.20
2018-12-12T06:46:40.369Z,14.30
2018-12-12T06:49:09.325Z,14.30
2018-12-12T06:51:38.022Z,16.60
2018-12-12T06:54:06.781Z,11.30
2018-12-12T06:56:35.782Z,14.27
2018-12-12T06:59:06.152Z,13.43
2018-12-12T07:01:34.932Z,12.33
2018-12-12T07:04:05.465Z,12.97
2018-12-12T07:06:34.235Z,14.63
2018-12-12T07:09:05.735Z,13.93
2018-12-12T07:11:34.317Z,13.07
2018-12-12T07:14:04.894Z,11.20
2018-12-12T07:16:33.935Z,15.07
2018-12-12T07:19:04.234Z,11.70
2018-12-12T07:21:32.998Z,14.60
2018-12-12T07:24:02.838Z,10.87
2018-12-12T07:26:31.777Z,14.43
2018-12-12T07:29:00.409Z,12.73
2018-12-12T07:31:29.387Z,14.90
2018-12-12T07:34:00.775Z,11.53
2018-12-12T07:36:28.774Z,13.73
2018-12-12T07:38:57.380Z,17.07
2018-12-12T07:41:26.307Z,14.13
2018-12-12T07:43:54.931Z,13.90
2018-12-12T07:46:24.006Z,17.37
2018-12-12T07:48:53.012Z,16.20
2018-12-12T07:51:21.574Z,15.27
2018-12-12T07:53:50.182Z,14.73
2018-12-12T07:56:18.942Z,13.43
2018-12-12T07:58:47.800Z,15.03
2018-12-12T08:01:16.397Z,15.60
2018-12-12T08:03:45.183Z,16.70
2018-12-12T08:06:13.840Z,15.13
2018-12-12T08:08:42.805Z,14.70
2018-12-12T08:11:11.539Z,16.57
2018-12-12T08:13:44.246Z,14.10
2018-12-12T08:16:12.918Z,16.20
2018-12-12T08:18:41.842Z,24.33
2018-12-12T08:21:11.012Z,21.00
2018-12-12T08:23:39.573Z,19.10
2018-12-12T08:26:09.848Z,14.30
2018-12-12T08:28:38.931Z,16.57
2018-12-12T08:31:08.658Z,13.07
2018-12-12T08:33:37.214Z,15.53
2018-12-12T08:36:06.164Z,12.00
2018-12-12T08:38:34.763Z,11.87
2018-12-12T08:41:05.591Z,14.87
2018-12-12T08:43:34.233Z,14.23
2018-12-12T08:46:07.292Z,12.73
2018-12-12T08:48:36.367Z,12.20
2018-12-12T08:51:05.626Z,15.13
2018-12-12T08:53:34.275Z,10.63
2018-12-12T08:56:05.589Z,15.83
2018-12-12T08:58:34.176Z,15.10
2018-12-12T09:01:05.115Z,16.20
2018-12-12T09:03:33.979Z,15.63
2018-12-12T09:06:04.000Z,13.33
2018-12-12T09:08:32.749Z,13.47
2018-12-12T09:11:02.943Z,13.40
2018-12-12T09:13:31.633Z,11.50
2018-12-12T09:16:02.977Z,14.87
2018-12-12T09:18:31.618Z,14.63
2018-12-12T09:21:00.281Z,14.97
2018-12-12T09:23:28.898Z,12.73
2018-12-12T09:25:57.480Z,11.03
2018-12-12T09:28:26.271Z,12.33
2018-12-12T09:30:54.864Z,14.33
2018-12-12T09:33:24.795Z,12.73
2018-12-12T09:35:54.142Z,10.97
2018-12-12T09:38:22.847Z,12.70
2018-12-12T09:40:51.746Z,11.63
2018-12-12T09:43:20.391Z,12.97
2018-12-12T09:45:49.015Z,11.43
2018-12-12T09:48:19.675Z,12.37
2018-12-12T09:50:48.436Z,13.33
2018-12-12T09:53:17.026Z,11.63
2018-12-12T09:55:45.677Z,11.83
2018-12-12T09:58:14.264Z,14.60
2018-12-12T10:00:42.882Z,14.47
2018-12-12T10:03:12.120Z,14.53
2018-12-12T10:05:40.771Z,12.97
2018-12-12T10:08:09.413Z,14.63
2018-12-12T10:10:38.045Z,10.47
2018-12-12T10:13:06.852Z,13.63
2018-12-12T10:15:35.515Z,10.83
2018-12-12T10:18:05.440Z,12.77
2018-12-12T10:20:34.337Z,13.63
2018-12-12T10:23:05.061Z,11.33
2018-12-12T10:25:33.776Z,12.47
2018-12-12T10:28:05.580Z,12.40
2018-12-12T10:30:34.312Z,14.27
2018-12-12T10:33:04.558Z,14.97
2018-12-12T10:35:33.123Z,12.10
2018-12-12T10:38:02.873Z,14.00
2018-12-12T10:40:32.882Z,13.47
2018-12-12T10:43:03.300Z,11.13
2018-12-12T10:45:31.978Z,15.53
2018-12-12T10:48:00.934Z,11.00
2018-12-12T10:50:29.583Z,13.17
2018-12-12T10:52:58.202Z,12.00
2018-12-12T10:55:26.798Z,12.93
2018-12-12T10:57:55.493Z,14.37
2018-12-12T11:00:24.191Z,16.23
2018-12-12T11:02:58.183Z,14.07
2018-12-12T11:05:27.109Z,14.53
2018-12-12T11:07:55.705Z,15.50
2018-12-12T11:10:25.505Z,13.70
2018-12-12T11:12:58.071Z,13.20
2018-12-12T11:15:26.787Z,14.70
2018-12-12T11:17:55.766Z,13.13
2018-12-12T11:20:24.356Z,12.73
2018-12-12T11:22:53.185Z,13.80
2018-12-12T11:25:22.855Z,12.93
2018-12-12T11:27:51.621Z,15.93
2018-12-12T11:30:20.321Z,14.17
2018-12-12T11:32:48.946Z,11.77
2018-12-12T11:35:17.588Z,13.13
2018-12-12T11:37:46.366Z,11.73
2018-12-12T11:40:14.983Z,13.20
2018-12-12T11:42:44.654Z,10.70
2018-12-12T11:45:13.281Z,11.27
2018-12-12T11:47:42.045Z,12.00
2018-12-12T11:50:10.638Z,13.17
2018-12-12T11:52:39.340Z,10.47
2018-12-12T11:55:07.997Z,13.10
2018-12-12T11:57:36.864Z,11.23
2018-12-12T12:00:06.520Z,10.73
2018-12-12T12:02:35.743Z,10.27
2018-12-12T12:05:05.589Z,10.40
2018-12-12T12:07:34.461Z,13.37
2018-12-12T12:10:05.163Z,10.60
2018-12-12T12:12:34.158Z,12.60
2018-12-12T12:15:06.599Z,12.47
2018-12-12T12:17:36.547Z,14.40
2018-12-12T12:20:06.444Z,12.60
2018-12-12T12:22:35.099Z,12.77
2018-12-12T12:25:05.692Z,10.37
2018-12-12T12:27:34.403Z,11.50
2018-12-12T12:30:05.453Z,12.00
2018-12-12T12:32:34.101Z,13.07
2018-12-12T12:35:04.239Z,16.47
2018-12-12T12:37:32.855Z,10.97
2018-12-12T12:40:03.646Z,10.53
2018-12-12T12:42:32.237Z,11.90
2018-12-12T12:45:00.808Z,11.20
2018-12-12T12:47:29.358Z,10.33
2018-12-12T12:49:57.964Z,11.00
2018-12-12T12:52:26.712Z,11.73
2018-12-12T12:54:55.323Z,11.83
2018-12-12T12:57:23.948Z,12.70
2018-12-12T12:59:52.553Z,9.90
2018-12-12T13:02:21.265Z,10.93
2018-12-12T13:04:49.889Z,9.87
2018-12-12T13:07:18.506Z,11.53
2018-12-12T13:09:47.141Z,11.43
2018-12-12T13:12:15.861Z,9.80
2018-12-12T13:14:44.491Z,12.93
2018-12-12T13:17:13.062Z,12.57
2018-12-12T13:19:41.628Z,14.13
2018-12-12T13:22:10.291Z,15.47
2018-12-12T13:24:38.892Z,12.03
2018-12-12T13:27:07.514Z,11.50
2018-12-12T13:29:36.103Z,11.27
2018-12-12T13:32:05.841Z,9.13
2018-12-12T13:34:34.569Z,10.57
2018-12-12T13:37:05.059Z,13.07
2018-12-12T13:39:33.698Z,11.93
2018-12-12T13:42:04.272Z,11.43
2018-12-12T13:44:33.038Z,8.40
2018-12-12T13:47:02.871Z,7.83
2018-12-12T13:49:31.607Z,9.10
2018-12-12T13:52:00.543Z,10.10
2018-12-12T13:54:29.186Z,8.57
2018-12-12T13:56:57.937Z,9.97
2018-12-12T13:59:26.536Z,8.97
2018-12-12T14:01:55.254Z,8.47
2018-12-12T14:04:23.921Z,9.00
2018-12-12T14:06:52.642Z,10.00
2018-12-12T14:09:21.784Z,11.97
2018-12-12T14:11:50.490Z,9.10
2018-12-12T14:14:19.441Z,9.37
2018-12-12T14:16:48.512Z,10.60
2018-12-12T14:19:17.204Z,10.37
2018-12-12T14:21:45.871Z,9.80
2018-12-12T14:24:14.506Z,11.47
2018-12-12T14:26:43.270Z,9.57
2018-12-12T14:29:11.985Z,10.13
2018-12-12T14:31:40.838Z,11.43
2018-12-12T14:34:09.809Z,14.63
2018-12-12T14:36:38.407Z,12.73
2018-12-12T14:39:08.068Z,13.47
2018-12-12T14:41:36.866Z,17.60
2018-12-12T14:44:05.796Z,16.63
2018-12-12T14:46:34.409Z,13.17
2018-12-12T14:49:04.894Z,11.73
2018-12-12T14:51:33.579Z,11.57
2018-12-12T14:54:04.288Z,13.00
2018-12-12T14:56:33.117Z,13.50
2018-12-12T14:59:03.001Z,13.67
2018-12-12T15:01:31.818Z,14.83
2018-12-12T15:04:00.626Z,15.67
2018-12-12T15:06:29.359Z,11.03
2018-12-12T15:08:58.103Z,15.17
2018-12-12T15:11:26.786Z,11.87
2018-12-12T15:13:55.566Z,15.73
2018-12-12T15:16:24.367Z,14.07
2018-12-12T15:18:53.039Z,14.33
2018-12-12T15:21:25.778Z,11.43
2018-12-12T15:23:52.410Z,14.53
2018-12-12T15:26:21.371Z,15.17
2018-12-12T15:28:50.171Z,13.77
2018-12-12T15:31:18.886Z,12.87
2018-12-12T15:33:47.722Z,11.33
2018-12-12T15:36:16.499Z,13.83
2018-12-12T15:38:45.247Z,15.53
2018-12-12T15:41:14.170Z,14.43
2018-12-12T15:43:43.031Z,16.13
2018-12-12T15:46:11.651Z,13.97
2018-12-12T15:48:40.700Z,16.80
2018-12-12T15:51:09.557Z,16.97
2018-12-12T15:53:38.174Z,17.43
2018-12-12T15:56:07.297Z,24.17
2018-12-12T15:58:36.104Z,24.17
2018-12-12T16:01:05.525Z,22.63
2018-12-12T16:03:34.292Z,24.20
2018-12-12T16:06:04.681Z,23.33
2018-12-12T16:08:33.486Z,23.27
2018-12-12T16:11:08.258Z,19.40
2018-12-12T16:13:34.790Z,17.17
2018-12-12T16:16:05.000Z,15.93
2018-12-12T16:18:33.741Z,15.57
2018-12-12T16:21:03.872Z,15.53
2018-12-12T16:23:32.786Z,15.27
2018-12-12T16:26:03.344Z,17.63
2018-12-12T16:28:31.947Z,17.30
2018-12-12T16:31:00.913Z,17.07
2018-12-12T16:33:29.554Z,17.47
2018-12-12T16:35:58.365Z,22.00
2018-12-12T16:38:27.047Z,18.23
2018-12-12T16:40:56.058Z,16.90
2018-12-12T16:43:24.637Z,18.87
2018-12-12T16:45:53.315Z,17.47
2018-12-12T16:48:22.030Z,19.93
2018-12-12T16:50:50.816Z,20.13
2018-12-12T16:53:20.331Z,19.87
2018-12-12T16:55:49.071Z,18.83
2018-12-12T16:58:17.950Z,23.53
2018-12-12T17:00:46.634Z,15.57
2018-12-12T17:03:15.227Z,17.93
2018-12-12T17:05:43.886Z,16.43
2018-12-12T17:08:12.645Z,18.40
2018-12-12T17:10:41.348Z,15.47
2018-12-12T17:13:10.093Z,15.93
2018-12-12T17:15:38.961Z,14.80
2018-12-12T17:18:07.921Z,13.83
2018-12-12T17:20:36.786Z,13.17
2018-12-12T17:23:06.153Z,14.53
2018-12-12T17:25:34.781Z,14.17
2018-12-12T17:28:05.079Z,17.60
2018-12-12T17:30:33.727Z,17.13
2018-12-12T17:33:03.879Z,18.53
2018-12-12T17:35:32.501Z,15.97
2018-12-12T17:38:03.346Z,14.87
2018-12-12T17:40:32.038Z,14.80
2018-12-12T17:43:00.660Z,15.13
2018-12-12T17:45:29.475Z,18.33
2018-12-12T17:47:58.210Z,14.27
2018-12-12T17:50:27.871Z,14.83
2018-12-12T17:52:56.494Z,15.13
2018-12-12T17:55:26.138Z,13.90
2018-12-12T17:57:54.828Z,14.33
2018-12-12T18:00:23.477Z,12.63
2018-12-12T18:02:52.180Z,12.63
2018-12-12T18:05:20.933Z,11.90
2018-12-12T18:07:49.627Z,12.40
2018-12-12T18:10:18.318Z,10.97
2018-12-12T18:12:47.076Z,11.43
2018-12-12T18:15:15.868Z,13.13
2018-12-12T18:17:45.749Z,11.83
2018-12-12T18:20:14.522Z,15.27
2018-12-12T18:22:43.955Z,12.87
2018-12-12T18:25:12.718Z,13.67
2018-12-12T18:27:41.434Z,13.23
2018-12-12T18:30:10.446Z,15.30
2018-12-12T18:32:39.186Z,13.83
2018-12-12T18:35:07.884Z,13.30
2018-12-12T18:37:37.158Z,14.00
2018-12-12T18:40:06.176Z,12.63
2018-12-12T18:42:34.907Z,14.13
2018-12-12T18:45:06.312Z,12.27
2018-12-12T18:47:35.016Z,15.53
2018-12-12T18:50:06.077Z,15.77
2018-12-12T18:52:35.062Z,18.13
2018-12-12T18:55:06.020Z,18.20
2018-12-12T18:57:35.989Z,17.97
2018-12-12T19:00:06.700Z,16.67
2018-12-12T19:02:35.559Z,15.23
2018-12-12T19:05:05.581Z,22.57
2018-12-12T19:07:34.671Z,46.37
2018-12-12T19:10:06.635Z,37.83
2018-12-12T19:12:35.369Z,34.30
2018-12-12T19:15:06.793Z,30.23
2018-12-12T19:17:36.196Z,26.90
2018-12-12T19:20:06.428Z,23.20
2018-12-12T19:22:35.204Z,20.23
2018-12-12T19:25:06.852Z,18.47
2018-12-12T19:27:36.404Z,20.37
2018-12-12T19:30:07.717Z,17.83
2018-12-12T19:32:37.381Z,16.67
2018-12-12T19:35:07.682Z,19.03
2018-12-12T19:37:36.534Z,18.63
2018-12-12T19:40:06.354Z,16.07
2018-12-12T19:42:35.370Z,16.93
2018-12-12T19:45:07.784Z,17.80
2018-12-12T19:47:36.698Z,16.17
2018-12-12T19:50:09.268Z,16.87
2018-12-12T19:52:38.420Z,16.07
2018-12-12T19:55:07.576Z,15.67
2018-12-12T19:57:36.646Z,17.27
2018-12-12T20:00:07.194Z,16.83
2018-12-12T20:02:36.100Z,16.83
2018-12-12T20:05:06.537Z,17.87
2018-12-12T20:07:35.439Z,19.30
2018-12-12T20:10:07.258Z,16.97
2018-12-12T20:12:36.113Z,17.63
2018-12-12T20:15:10.216Z,17.30
2018-12-12T20:17:40.159Z,19.03
2018-12-12T20:20:09.326Z,18.73
2018-12-12T20:22:39.436Z,19.87
2018-12-12T20:25:08.444Z,25.87
2018-12-12T20:27:37.395Z,19.57
2018-12-12T20:30:06.791Z,19.97
2018-12-12T20:32:35.732Z,20.30
2018-12-12T20:35:05.776Z,21.30
2018-12-12T20:37:36.086Z,20.50
2018-12-12T20:40:06.476Z,20.43
2018-12-12T20:42:35.456Z,21.30
2018-12-12T20:45:08.973Z,20.47
2018-12-12T20:47:37.994Z,19.53
2018-12-12T20:50:07.824Z,24.47
2018-12-12T20:52:36.789Z,23.50
2018-12-12T20:55:06.261Z,23.27
2018-12-12T20:57:35.634Z,22.20
2018-12-12T21:00:05.888Z,22.70
2018-12-12T21:02:34.960Z,27.60
2018-12-12T21:05:06.783Z,28.23
2018-12-12T21:07:35.773Z,26.47
2018-12-12T21:10:05.744Z,24.47
2018-12-12T21:12:34.874Z,25.60
2018-12-12T21:15:08.540Z,23.03
2018-12-12T21:17:38.100Z,23.63
2018-12-12T21:20:08.925Z,25.47
2018-12-12T21:22:38.056Z,22.23
2018-12-12T21:25:07.527Z,23.23
2018-12-12T21:27:36.408Z,25.20
2018-12-12T21:30:07.596Z,26.37
2018-12-12T21:32:36.784Z,26.47
2018-12-12T21:35:07.545Z,27.63
2018-12-12T21:37:36.384Z,27.10
2018-12-12T21:40:06.068Z,26.90
2018-12-12T21:42:35.168Z,28.23
2018-12-12T21:45:06.411Z,26.83
2018-12-12T21:47:35.591Z,30.57
2018-12-12T21:50:06.385Z,29.60
2018-12-12T21:52:35.031Z,27.20
2018-12-12T21:55:05.820Z,28.17
2018-12-12T21:57:34.471Z,30.37
2018-12-12T22:00:04.656Z,32.13
2018-12-12T22:02:33.644Z,29.83
2018-12-12T22:05:03.922Z,31.67
2018-12-12T22:07:32.702Z,31.47
2018-12-12T22:10:03.155Z,28.53
2018-12-12T22:12:32.331Z,30.73
2018-12-12T22:15:05.038Z,26.23
2018-12-12T22:17:33.715Z,29.43
2018-12-12T22:20:05.362Z,28.63
2018-12-12T22:22:34.794Z,28.67
2018-12-12T22:25:05.318Z,27.47
2018-12-12T22:27:34.113Z,26.43
2018-12-12T22:30:03.761Z,27.27
2018-12-12T22:32:32.346Z,29.40
2018-12-12T22:35:00.913Z,30.67
2018-12-12T22:37:29.685Z,32.13
2018-12-12T22:39:58.437Z,28.23
2018-12-12T22:42:27.103Z,34.07
2018-12-12T22:44:55.830Z,32.03
2018-12-12T22:47:24.487Z,34.70
2018-12-12T22:49:53.194Z,30.13
2018-12-12T22:52:21.921Z,32.13
2018-12-12T22:54:50.826Z,30.60
2018-12-12T22:57:19.386Z,31.47
2018-12-12T22:59:48.056Z,33.80
2018-12-12T23:02:16.694Z,32.67
2018-12-12T23:04:45.643Z,34.67
2018-12-12T23:07:14.925Z,34.50
2018-12-12T23:09:43.531Z,38.00
2018-12-12T23:12:12.108Z,32.87
2018-12-12T23:14:40.862Z,37.20
2018-12-12T23:17:09.694Z,37.33
2018-12-12T23:19:38.493Z,35.33
2018-12-12T23:22:07.201Z,37.10
2018-12-12T23:24:35.794Z,34.93
2018-12-12T23:27:07.835Z,41.00
2018-12-12T23:29:36.417Z,40.17
2018-12-12T23:32:05.319Z,32.80
2018-12-12T23:34:33.972Z,38.50
2018-12-12T23:37:03.883Z,36.63
2018-12-12T23:39:32.498Z,34.97
2018-12-12T23:42:02.797Z,35.70
2018-12-12T23:44:31.650Z,33.97
2018-12-12T23:47:00.299Z,35.87
2018-12-12T23:49:29.065Z,32.03
2018-12-12T23:51:57.764Z,33.53
2018-12-12T23:54:26.452Z,34.77
2018-12-12T23:56:55.153Z,34.73
2018-12-12T23:59:23.812Z,33.43
